sensor_id;sensor_type;location;lat;lon;timestamp;temperature;humidity
59301;DHT22;45073;52.740;6.784;2023-12-20T00:00:20;5.80;99.90
59301;DHT22;45073;52.740;6.784;2023-12-20T00:02:46;5.80;99.90
59301;DHT22;45073;52.740;6.784;2023-12-20T00:05:13;5.90;99.90
59301;DHT22;45073;52.740;6.784;2023-12-20T00:07:39;6.00;99.90
59301;DHT22;45073;52.740;6.784;2023-12-20T00:10:05;6.00;99.90
59301;DHT22;45073;52.740;6.784;2023-12-20T00:12:31;6.00;99.90
59301;DHT22;45073;52.740;6.784;2023-12-20T00:14:57;6.00;99.90
59301;DHT22;45073;52.740;6.784;2023-12-20T00:17:23;6.10;99.90
59301;DHT22;45073;52.740;6.784;2023-12-20T00:19:48;6.10;99.90
59301;DHT22;45073;52.740;6.784;2023-12-20T00:22:14;6.10;99.90
59301;DHT22;45073;52.740;6.784;2023-12-20T00:24:39;6.00;99.90
59301;DHT22;45073;52.740;6.784;2023-12-20T00:27:05;6.00;99.90
59301;DHT22;45073;52.740;6.784;2023-12-20T00:29:30;6.00;99.90
59301;DHT22;45073;52.740;6.784;2023-12-20T00:31:56;6.00;99.90
59301;DHT22;45073;52.740;6.784;2023-12-20T00:34:22;6.10;99.90
59301;DHT22;45073;52.740;6.784;2023-12-20T00:36:47;6.10;99.90
59301;DHT22;45073;52.740;6.784;2023-12-20T00:39:13;6.10;99.90
59301;DHT22;45073;52.740;6.784;2023-12-20T00:41:38;6.10;99.90
59301;DHT22;45073;52.740;6.784;2023-12-20T00:44:04;6.10;99.90
59301;DHT22;45073;52.740;6.784;2023-12-20T00:46:30;6.10;99.90
59301;DHT22;45073;52.740;6.784;2023-12-20T00:48:56;6.10;99.90
59301;DHT22;45073;52.740;6.784;2023-12-20T00:51:22;6.00;99.90
59301;DHT22;45073;52.740;6.784;2023-12-20T00:53:49;6.00;99.90
59301;DHT22;45073;52.740;6.784;2023-12-20T00:56:15;5.90;99.90
59301;DHT22;45073;52.740;6.784;2023-12-20T00:58:41;5.90;99.90
59301;DHT22;45073;52.740;6.784;2023-12-20T01:01:06;5.90;99.90
59301;DHT22;45073;52.740;6.784;2023-12-20T01:03:32;5.80;99.90
59301;DHT22;45073;52.740;6.784;2023-12-20T01:05:58;5.80;99.90
59301;DHT22;45073;52.740;6.784;2023-12-20T01:08:23;5.70;99.90
59301;DHT22;45073;52.740;6.784;2023-12-20T01:10:49;5.70;99.90
59301;DHT22;45073;52.740;6.784;2023-12-20T01:13:14;5.60;99.90
59301;DHT22;45073;52.740;6.784;2023-12-20T01:15:40;5.60;99.90
59301;DHT22;45073;52.740;6.784;2023-12-20T01:18:06;5.60;99.90
59301;DHT22;45073;52.740;6.784;2023-12-20T01:20:31;5.70;99.90
59301;DHT22;45073;52.740;6.784;2023-12-20T01:22:57;5.70;99.90
59301;DHT22;45073;52.740;6.784;2023-12-20T01:25:22;5.70;99.90
59301;DHT22;45073;52.740;6.784;2023-12-20T01:27:48;5.70;99.90
59301;DHT22;45073;52.740;6.784;2023-12-20T01:30:14;5.70;99.90
59301;DHT22;45073;52.740;6.784;2023-12-20T01:32:40;5.70;99.90
59301;DHT22;45073;52.740;6.784;2023-12-20T01:35:06;5.80;99.90
59301;DHT22;45073;52.740;6.784;2023-12-20T01:37:31;5.80;99.90
59301;DHT22;45073;52.740;6.784;2023-12-20T01:39:57;5.80;99.90
59301;DHT22;45073;52.740;6.784;2023-12-20T01:42:24;5.80;99.90
59301;DHT22;45073;52.740;6.784;2023-12-20T01:44:49;5.80;99.90
59301;DHT22;45073;52.740;6.784;2023-12-20T01:47:15;5.90;99.90
59301;DHT22;45073;52.740;6.784;2023-12-20T01:49:41;5.80;99.90
59301;DHT22;45073;52.740;6.784;2023-12-20T01:52:07;5.90;99.90
59301;DHT22;45073;52.740;6.784;2023-12-20T01:54:34;5.90;99.90
59301;DHT22;45073;52.740;6.784;2023-12-20T01:57:00;5.90;99.90
59301;DHT22;45073;52.740;6.784;2023-12-20T01:59:26;5.90;99.90
59301;DHT22;45073;52.740;6.784;2023-12-20T02:01:51;5.90;99.90
59301;DHT22;45073;52.740;6.784;2023-12-20T02:04:17;5.80;99.90
59301;DHT22;45073;52.740;6.784;2023-12-20T02:06:43;5.80;99.90
59301;DHT22;45073;52.740;6.784;2023-12-20T02:09:10;5.80;99.90
59301;DHT22;45073;52.740;6.784;2023-12-20T02:11:36;5.80;99.90
59301;DHT22;45073;52.740;6.784;2023-12-20T02:14:02;5.80;99.90
59301;DHT22;45073;52.740;6.784;2023-12-20T02:16:28;5.80;99.90
59301;DHT22;45073;52.740;6.784;2023-12-20T02:18:54;5.80;99.90
59301;DHT22;45073;52.740;6.784;2023-12-20T02:21:33;5.80;99.90
59301;DHT22;45073;52.740;6.784;2023-12-20T02:24:00;5.90;99.90
59301;DHT22;45073;52.740;6.784;2023-12-20T02:26:26;5.90;99.90
59301;DHT22;45073;52.740;6.784;2023-12-20T02:28:52;6.00;99.90
59301;DHT22;45073;52.740;6.784;2023-12-20T02:31:21;6.00;99.90
59301;DHT22;45073;52.740;6.784;2023-12-20T02:33:47;6.00;99.90
59301;DHT22;45073;52.740;6.784;2023-12-20T02:36:13;6.10;99.90
59301;DHT22;45073;52.740;6.784;2023-12-20T02:38:38;6.10;99.90
59301;DHT22;45073;52.740;6.784;2023-12-20T02:41:04;6.20;99.90
59301;DHT22;45073;52.740;6.784;2023-12-20T02:43:30;6.20;99.90
59301;DHT22;45073;52.740;6.784;2023-12-20T02:45:55;6.20;99.90
59301;DHT22;45073;52.740;6.784;2023-12-20T02:48:21;6.30;99.90
59301;DHT22;45073;52.740;6.784;2023-12-20T02:50:47;6.30;99.90
59301;DHT22;45073;52.740;6.784;2023-12-20T02:53:14;6.30;99.90
59301;DHT22;45073;52.740;6.784;2023-12-20T02:55:40;6.40;99.90
59301;DHT22;45073;52.740;6.784;2023-12-20T02:58:05;6.40;99.90
59301;DHT22;45073;52.740;6.784;2023-12-20T03:00:31;6.40;99.90
59301;DHT22;45073;52.740;6.784;2023-12-20T03:02:56;6.40;99.90
59301;DHT22;45073;52.740;6.784;2023-12-20T03:05:22;6.40;99.90
59301;DHT22;45073;52.740;6.784;2023-12-20T03:07:48;6.50;99.90
59301;DHT22;45073;52.740;6.784;2023-12-20T03:10:13;6.50;99.90
59301;DHT22;45073;52.740;6.784;2023-12-20T03:12:39;6.50;99.90
59301;DHT22;45073;52.740;6.784;2023-12-20T03:15:05;6.50;99.90
59301;DHT22;45073;52.740;6.784;2023-12-20T03:17:30;6.50;99.90
59301;DHT22;45073;52.740;6.784;2023-12-20T03:19:56;6.50;99.90
59301;DHT22;45073;52.740;6.784;2023-12-20T03:22:22;6.50;99.90
59301;DHT22;45073;52.740;6.784;2023-12-20T03:24:47;6.50;99.90
59301;DHT22;45073;52.740;6.784;2023-12-20T03:27:13;6.50;99.90
59301;DHT22;45073;52.740;6.784;2023-12-20T03:29:38;6.50;99.90
59301;DHT22;45073;52.740;6.784;2023-12-20T03:32:04;6.50;99.90
59301;DHT22;45073;52.740;6.784;2023-12-20T03:34:30;6.50;99.90
59301;DHT22;45073;52.740;6.784;2023-12-20T03:36:55;6.50;99.90
59301;DHT22;45073;52.740;6.784;2023-12-20T03:39:21;6.50;99.90
59301;DHT22;45073;52.740;6.784;2023-12-20T03:41:47;6.40;99.90
59301;DHT22;45073;52.740;6.784;2023-12-20T03:44:12;6.40;99.90
59301;DHT22;45073;52.740;6.784;2023-12-20T03:46:38;6.40;99.90
59301;DHT22;45073;52.740;6.784;2023-12-20T03:49:03;6.40;99.90
59301;DHT22;45073;52.740;6.784;2023-12-20T03:51:29;6.40;99.90
59301;DHT22;45073;52.740;6.784;2023-12-20T03:53:54;6.40;99.90
59301;DHT22;45073;52.740;6.784;2023-12-20T03:56:20;6.40;99.90
59301;DHT22;45073;52.740;6.784;2023-12-20T03:58:46;6.50;99.90
59301;DHT22;45073;52.740;6.784;2023-12-20T04:01:11;6.50;99.90
59301;DHT22;45073;52.740;6.784;2023-12-20T04:03:38;6.50;99.90
59301;DHT22;45073;52.740;6.784;2023-12-20T04:06:04;6.50;99.90
59301;DHT22;45073;52.740;6.784;2023-12-20T04:08:29;6.40;99.90
59301;DHT22;45073;52.740;6.784;2023-12-20T04:10:55;6.40;99.90
59301;DHT22;45073;52.740;6.784;2023-12-20T04:13:21;6.40;99.90
59301;DHT22;45073;52.740;6.784;2023-12-20T04:15:46;6.40;99.90
59301;DHT22;45073;52.740;6.784;2023-12-20T04:18:12;6.40;99.90
59301;DHT22;45073;52.740;6.784;2023-12-20T04:20:37;6.40;99.90
59301;DHT22;45073;52.740;6.784;2023-12-20T04:23:03;6.40;99.90
59301;DHT22;45073;52.740;6.784;2023-12-20T04:25:29;6.50;99.90
59301;DHT22;45073;52.740;6.784;2023-12-20T04:27:54;6.50;99.90
59301;DHT22;45073;52.740;6.784;2023-12-20T04:30:20;6.50;99.90
59301;DHT22;45073;52.740;6.784;2023-12-20T04:32:45;6.60;99.90
59301;DHT22;45073;52.740;6.784;2023-12-20T04:35:11;6.70;99.90
59301;DHT22;45073;52.740;6.784;2023-12-20T04:37:36;6.70;99.90
59301;DHT22;45073;52.740;6.784;2023-12-20T04:40:02;6.70;99.90
59301;DHT22;45073;52.740;6.784;2023-12-20T04:42:28;6.70;99.90
59301;DHT22;45073;52.740;6.784;2023-12-20T04:44:53;6.70;99.90
59301;DHT22;45073;52.740;6.784;2023-12-20T04:47:19;6.70;99.90
59301;DHT22;45073;52.740;6.784;2023-12-20T04:49:45;6.70;99.90
59301;DHT22;45073;52.740;6.784;2023-12-20T04:52:10;6.70;99.90
59301;DHT22;45073;52.740;6.784;2023-12-20T04:54:36;6.70;99.90
59301;DHT22;45073;52.740;6.784;2023-12-20T04:57:01;6.80;99.90
59301;DHT22;45073;52.740;6.784;2023-12-20T04:59:27;6.80;99.90
59301;DHT22;45073;52.740;6.784;2023-12-20T05:01:52;6.80;99.90
59301;DHT22;45073;52.740;6.784;2023-12-20T05:04:18;6.90;99.90
59301;DHT22;45073;52.740;6.784;2023-12-20T05:06:43;6.90;99.90
59301;DHT22;45073;52.740;6.784;2023-12-20T05:09:09;6.90;99.90
59301;DHT22;45073;52.740;6.784;2023-12-20T05:11:35;6.90;99.90
59301;DHT22;45073;52.740;6.784;2023-12-20T05:14:00;7.00;99.90
59301;DHT22;45073;52.740;6.784;2023-12-20T05:16:26;6.90;99.90
59301;DHT22;45073;52.740;6.784;2023-12-20T05:18:51;6.90;99.90
59301;DHT22;45073;52.740;6.784;2023-12-20T05:21:18;7.00;99.90
59301;DHT22;45073;52.740;6.784;2023-12-20T05:23:44;7.00;99.90
59301;DHT22;45073;52.740;6.784;2023-12-20T05:26:09;7.00;99.90
59301;DHT22;45073;52.740;6.784;2023-12-20T05:28:35;7.00;99.90
59301;DHT22;45073;52.740;6.784;2023-12-20T05:31:00;7.00;99.90
59301;DHT22;45073;52.740;6.784;2023-12-20T05:33:26;7.00;99.90
59301;DHT22;45073;52.740;6.784;2023-12-20T05:35:51;7.00;99.90
59301;DHT22;45073;52.740;6.784;2023-12-20T05:38:17;7.00;99.90
59301;DHT22;45073;52.740;6.784;2023-12-20T05:40:43;7.00;99.90
59301;DHT22;45073;52.740;6.784;2023-12-20T05:43:08;7.00;99.90
59301;DHT22;45073;52.740;6.784;2023-12-20T05:45:34;7.00;99.90
59301;DHT22;45073;52.740;6.784;2023-12-20T05:47:59;7.10;99.90
59301;DHT22;45073;52.740;6.784;2023-12-20T05:50:25;7.10;99.90
59301;DHT22;45073;52.740;6.784;2023-12-20T05:52:51;7.00;99.90
59301;DHT22;45073;52.740;6.784;2023-12-20T05:55:16;7.10;99.90
59301;DHT22;45073;52.740;6.784;2023-12-20T05:57:42;7.10;99.90
59301;DHT22;45073;52.740;6.784;2023-12-20T06:00:09;7.10;99.90
59301;DHT22;45073;52.740;6.784;2023-12-20T06:02:35;7.10;99.90
59301;DHT22;45073;52.740;6.784;2023-12-20T06:05:03;7.10;99.90
59301;DHT22;45073;52.740;6.784;2023-12-20T06:07:29;7.20;99.90
59301;DHT22;45073;52.740;6.784;2023-12-20T06:09:55;7.20;99.90
59301;DHT22;45073;52.740;6.784;2023-12-20T06:12:20;7.20;99.90
59301;DHT22;45073;52.740;6.784;2023-12-20T06:14:46;7.20;99.90
59301;DHT22;45073;52.740;6.784;2023-12-20T06:17:11;7.20;99.90
59301;DHT22;45073;52.740;6.784;2023-12-20T06:19:37;7.30;99.90
59301;DHT22;45073;52.740;6.784;2023-12-20T06:22:03;7.30;99.90
59301;DHT22;45073;52.740;6.784;2023-12-20T06:24:28;7.30;99.90
59301;DHT22;45073;52.740;6.784;2023-12-20T06:26:55;7.30;99.90
59301;DHT22;45073;52.740;6.784;2023-12-20T06:29:20;7.30;99.90
59301;DHT22;45073;52.740;6.784;2023-12-20T06:31:46;7.30;99.90
59301;DHT22;45073;52.740;6.784;2023-12-20T06:34:12;7.30;99.90
59301;DHT22;45073;52.740;6.784;2023-12-20T06:36:37;7.30;99.90
59301;DHT22;45073;52.740;6.784;2023-12-20T06:39:03;7.40;99.90
59301;DHT22;45073;52.740;6.784;2023-12-20T06:41:30;7.40;99.90
59301;DHT22;45073;52.740;6.784;2023-12-20T06:43:55;7.40;99.90
59301;DHT22;45073;52.740;6.784;2023-12-20T06:46:21;7.40;99.90
59301;DHT22;45073;52.740;6.784;2023-12-20T06:48:46;7.40;99.90
59301;DHT22;45073;52.740;6.784;2023-12-20T06:51:15;7.40;99.90
59301;DHT22;45073;52.740;6.784;2023-12-20T06:53:41;7.40;99.90
59301;DHT22;45073;52.740;6.784;2023-12-20T06:56:06;7.40;99.90
59301;DHT22;45073;52.740;6.784;2023-12-20T06:58:33;7.40;99.90
59301;DHT22;45073;52.740;6.784;2023-12-20T07:00:58;7.40;99.90
59301;DHT22;45073;52.740;6.784;2023-12-20T07:03:24;7.40;99.90
59301;DHT22;45073;52.740;6.784;2023-12-20T07:05:49;7.40;99.90
59301;DHT22;45073;52.740;6.784;2023-12-20T07:08:15;7.40;99.90
59301;DHT22;45073;52.740;6.784;2023-12-20T07:10:41;7.50;99.90
59301;DHT22;45073;52.740;6.784;2023-12-20T07:13:07;7.50;99.90
59301;DHT22;45073;52.740;6.784;2023-12-20T07:15:33;7.50;99.90
59301;DHT22;45073;52.740;6.784;2023-12-20T07:17:59;7.50;99.90
59301;DHT22;45073;52.740;6.784;2023-12-20T07:20:26;7.50;99.90
59301;DHT22;45073;52.740;6.784;2023-12-20T07:22:51;7.50;99.90
59301;DHT22;45073;52.740;6.784;2023-12-20T07:25:17;7.60;99.90
59301;DHT22;45073;52.740;6.784;2023-12-20T07:27:43;7.60;99.90
59301;DHT22;45073;52.740;6.784;2023-12-20T07:30:09;7.60;99.90
59301;DHT22;45073;52.740;6.784;2023-12-20T07:32:34;7.60;99.90
59301;DHT22;45073;52.740;6.784;2023-12-20T07:35:00;7.60;99.90
59301;DHT22;45073;52.740;6.784;2023-12-20T07:37:26;7.60;99.90
59301;DHT22;45073;52.740;6.784;2023-12-20T07:39:51;7.70;99.90
59301;DHT22;45073;52.740;6.784;2023-12-20T07:42:17;7.70;99.90
59301;DHT22;45073;52.740;6.784;2023-12-20T07:44:42;7.70;99.90
59301;DHT22;45073;52.740;6.784;2023-12-20T07:47:08;7.70;99.90
59301;DHT22;45073;52.740;6.784;2023-12-20T07:49:33;7.60;99.90
59301;DHT22;45073;52.740;6.784;2023-12-20T07:51:59;7.70;99.90
59301;DHT22;45073;52.740;6.784;2023-12-20T07:54:25;7.70;99.90
59301;DHT22;45073;52.740;6.784;2023-12-20T07:56:50;7.70;99.90
59301;DHT22;45073;52.740;6.784;2023-12-20T07:59:16;7.70;99.90
59301;DHT22;45073;52.740;6.784;2023-12-20T08:01:41;7.70;99.90
59301;DHT22;45073;52.740;6.784;2023-12-20T08:04:08;7.70;99.90
59301;DHT22;45073;52.740;6.784;2023-12-20T08:06:33;7.70;99.90
59301;DHT22;45073;52.740;6.784;2023-12-20T08:08:59;7.70;99.90
59301;DHT22;45073;52.740;6.784;2023-12-20T08:11:24;7.70;99.90
59301;DHT22;45073;52.740;6.784;2023-12-20T08:13:50;7.70;99.90
59301;DHT22;45073;52.740;6.784;2023-12-20T08:16:16;7.80;99.90
59301;DHT22;45073;52.740;6.784;2023-12-20T08:18:43;7.80;99.90
59301;DHT22;45073;52.740;6.784;2023-12-20T08:21:08;7.80;99.90
59301;DHT22;45073;52.740;6.784;2023-12-20T08:23:34;7.80;99.90
59301;DHT22;45073;52.740;6.784;2023-12-20T08:26:05;7.80;99.90
59301;DHT22;45073;52.740;6.784;2023-12-20T08:28:30;7.80;99.90
59301;DHT22;45073;52.740;6.784;2023-12-20T08:30:56;7.80;99.90
59301;DHT22;45073;52.740;6.784;2023-12-20T08:33:22;7.80;99.90
59301;DHT22;45073;52.740;6.784;2023-12-20T08:35:48;7.90;99.90
59301;DHT22;45073;52.740;6.784;2023-12-20T08:38:13;7.90;99.90
59301;DHT22;45073;52.740;6.784;2023-12-20T08:40:39;7.90;99.90
59301;DHT22;45073;52.740;6.784;2023-12-20T08:43:05;7.90;99.90
59301;DHT22;45073;52.740;6.784;2023-12-20T08:45:30;7.90;99.90
59301;DHT22;45073;52.740;6.784;2023-12-20T08:47:56;8.00;99.90
59301;DHT22;45073;52.740;6.784;2023-12-20T08:50:22;8.00;99.90
59301;DHT22;45073;52.740;6.784;2023-12-20T08:52:47;8.00;99.90
59301;DHT22;45073;52.740;6.784;2023-12-20T08:55:13;8.00;99.90
59301;DHT22;45073;52.740;6.784;2023-12-20T08:57:40;8.00;99.90
59301;DHT22;45073;52.740;6.784;2023-12-20T09:00:06;8.10;99.90
59301;DHT22;45073;52.740;6.784;2023-12-20T09:02:33;8.10;99.90
59301;DHT22;45073;52.740;6.784;2023-12-20T09:05:01;8.10;99.90
59301;DHT22;45073;52.740;6.784;2023-12-20T09:07:27;8.10;99.90
59301;DHT22;45073;52.740;6.784;2023-12-20T09:09:56;8.10;99.90
59301;DHT22;45073;52.740;6.784;2023-12-20T09:12:22;8.20;99.90
59301;DHT22;45073;52.740;6.784;2023-12-20T09:14:49;8.20;99.90
59301;DHT22;45073;52.740;6.784;2023-12-20T09:17:15;8.20;99.90
59301;DHT22;45073;52.740;6.784;2023-12-20T09:19:42;8.30;99.90
59301;DHT22;45073;52.740;6.784;2023-12-20T09:22:09;8.30;99.90
59301;DHT22;45073;52.740;6.784;2023-12-20T09:24:35;8.30;99.90
59301;DHT22;45073;52.740;6.784;2023-12-20T09:27:00;8.30;99.90
59301;DHT22;45073;52.740;6.784;2023-12-20T09:29:26;8.30;99.90
59301;DHT22;45073;52.740;6.784;2023-12-20T09:31:52;8.40;99.90
59301;DHT22;45073;52.740;6.784;2023-12-20T09:34:17;8.40;99.90
59301;DHT22;45073;52.740;6.784;2023-12-20T09:36:43;8.40;99.90
59301;DHT22;45073;52.740;6.784;2023-12-20T09:39:16;8.40;99.90
59301;DHT22;45073;52.740;6.784;2023-12-20T09:41:45;8.40;99.90
59301;DHT22;45073;52.740;6.784;2023-12-20T09:44:17;8.40;99.90
59301;DHT22;45073;52.740;6.784;2023-12-20T09:46:49;8.40;99.90
59301;DHT22;45073;52.740;6.784;2023-12-20T09:49:17;8.40;99.90
59301;DHT22;45073;52.740;6.784;2023-12-20T09:51:46;8.50;99.90
59301;DHT22;45073;52.740;6.784;2023-12-20T09:54:13;8.60;99.90
59301;DHT22;45073;52.740;6.784;2023-12-20T09:56:39;8.60;99.90
59301;DHT22;45073;52.740;6.784;2023-12-20T09:59:05;8.60;99.90
59301;DHT22;45073;52.740;6.784;2023-12-20T10:01:31;8.60;99.90
59301;DHT22;45073;52.740;6.784;2023-12-20T10:03:57;8.50;99.90
59301;DHT22;45073;52.740;6.784;2023-12-20T10:06:24;8.50;99.90
59301;DHT22;45073;52.740;6.784;2023-12-20T10:08:49;8.40;99.90
59301;DHT22;45073;52.740;6.784;2023-12-20T10:11:15;8.20;99.90
59301;DHT22;45073;52.740;6.784;2023-12-20T10:13:42;7.70;99.90
59301;DHT22;45073;52.740;6.784;2023-12-20T10:16:08;7.60;99.90
59301;DHT22;45073;52.740;6.784;2023-12-20T10:18:34;7.50;99.90
59301;DHT22;45073;52.740;6.784;2023-12-20T10:21:00;7.50;99.90
59301;DHT22;45073;52.740;6.784;2023-12-20T10:23:26;7.50;99.90
59301;DHT22;45073;52.740;6.784;2023-12-20T10:25:58;7.60;99.90
59301;DHT22;45073;52.740;6.784;2023-12-20T10:28:25;7.60;99.90
59301;DHT22;45073;52.740;6.784;2023-12-20T10:30:55;7.60;99.90
59301;DHT22;45073;52.740;6.784;2023-12-20T10:33:25;7.60;99.90
59301;DHT22;45073;52.740;6.784;2023-12-20T10:36:00;7.60;99.90
59301;DHT22;45073;52.740;6.784;2023-12-20T10:38:26;7.50;99.90
59301;DHT22;45073;52.740;6.784;2023-12-20T10:40:57;7.50;99.90
59301;DHT22;45073;52.740;6.784;2023-12-20T10:43:28;7.40;99.90
59301;DHT22;45073;52.740;6.784;2023-12-20T10:45:54;7.40;99.90
59301;DHT22;45073;52.740;6.784;2023-12-20T10:48:20;7.30;99.90
59301;DHT22;45073;52.740;6.784;2023-12-20T10:50:47;7.20;99.90
59301;DHT22;45073;52.740;6.784;2023-12-20T10:53:15;7.20;99.90
59301;DHT22;45073;52.740;6.784;2023-12-20T10:55:43;7.10;99.90
59301;DHT22;45073;52.740;6.784;2023-12-20T10:58:09;7.10;99.90
59301;DHT22;45073;52.740;6.784;2023-12-20T11:00:43;7.10;99.90
59301;DHT22;45073;52.740;6.784;2023-12-20T11:03:11;7.10;99.90
59301;DHT22;45073;52.740;6.784;2023-12-20T11:08:47;7.10;99.90
59301;DHT22;45073;52.740;6.784;2023-12-20T11:11:35;7.10;99.90
59301;DHT22;45073;52.740;6.784;2023-12-20T11:14:06;7.20;99.90
59301;DHT22;45073;52.740;6.784;2023-12-20T11:16:37;7.20;99.90
59301;DHT22;45073;52.740;6.784;2023-12-20T11:19:06;7.20;99.90
59301;DHT22;45073;52.740;6.784;2023-12-20T11:21:31;7.30;99.90
59301;DHT22;45073;52.740;6.784;2023-12-20T11:23:57;7.30;99.90
59301;DHT22;45073;52.740;6.784;2023-12-20T11:26:27;7.30;99.90
59301;DHT22;45073;52.740;6.784;2023-12-20T11:28:54;7.30;99.90
59301;DHT22;45073;52.740;6.784;2023-12-20T11:31:19;7.30;99.90
59301;DHT22;45073;52.740;6.784;2023-12-20T11:33:45;7.30;99.90
59301;DHT22;45073;52.740;6.784;2023-12-20T11:36:15;7.30;99.90
59301;DHT22;45073;52.740;6.784;2023-12-20T11:38:56;7.30;99.90
59301;DHT22;45073;52.740;6.784;2023-12-20T11:41:23;7.40;99.90
59301;DHT22;45073;52.740;6.784;2023-12-20T11:43:53;7.40;99.90
59301;DHT22;45073;52.740;6.784;2023-12-20T11:46:18;7.40;99.90
59301;DHT22;45073;52.740;6.784;2023-12-20T11:48:44;7.40;99.90
59301;DHT22;45073;52.740;6.784;2023-12-20T11:51:11;7.40;99.90
59301;DHT22;45073;52.740;6.784;2023-12-20T11:53:37;7.50;99.90
59301;DHT22;45073;52.740;6.784;2023-12-20T11:56:04;7.50;99.90
59301;DHT22;45073;52.740;6.784;2023-12-20T11:58:30;7.50;99.90
59301;DHT22;45073;52.740;6.784;2023-12-20T12:00:56;7.50;99.90
59301;DHT22;45073;52.740;6.784;2023-12-20T12:03:22;7.50;99.90
59301;DHT22;45073;52.740;6.784;2023-12-20T12:05:49;7.50;99.90
59301;DHT22;45073;52.740;6.784;2023-12-20T12:08:15;7.40;99.90
59301;DHT22;45073;52.740;6.784;2023-12-20T12:10:41;7.40;99.90
59301;DHT22;45073;52.740;6.784;2023-12-20T12:13:07;7.40;99.90
59301;DHT22;45073;52.740;6.784;2023-12-20T12:15:33;7.40;99.90
59301;DHT22;45073;52.740;6.784;2023-12-20T12:17:58;7.40;99.90
59301;DHT22;45073;52.740;6.784;2023-12-20T12:20:24;7.50;99.90
59301;DHT22;45073;52.740;6.784;2023-12-20T12:23:04;7.50;99.90
59301;DHT22;45073;52.740;6.784;2023-12-20T12:25:31;7.50;99.90
59301;DHT22;45073;52.740;6.784;2023-12-20T12:28:01;7.50;99.90
59301;DHT22;45073;52.740;6.784;2023-12-20T12:30:27;7.60;99.90
59301;DHT22;45073;52.740;6.784;2023-12-20T12:32:53;7.60;99.90
59301;DHT22;45073;52.740;6.784;2023-12-20T12:35:19;7.60;99.90
59301;DHT22;45073;52.740;6.784;2023-12-20T12:37:45;7.60;99.90
59301;DHT22;45073;52.740;6.784;2023-12-20T12:40:13;7.60;99.90
59301;DHT22;45073;52.740;6.784;2023-12-20T12:42:39;7.60;99.90
59301;DHT22;45073;52.740;6.784;2023-12-20T12:45:06;7.50;99.90
59301;DHT22;45073;52.740;6.784;2023-12-20T12:47:33;7.50;99.90
59301;DHT22;45073;52.740;6.784;2023-12-20T12:49:59;7.50;99.90
59301;DHT22;45073;52.740;6.784;2023-12-20T12:52:24;7.50;99.90
59301;DHT22;45073;52.740;6.784;2023-12-20T12:54:52;7.50;99.90
59301;DHT22;45073;52.740;6.784;2023-12-20T12:57:17;7.50;99.90
59301;DHT22;45073;52.740;6.784;2023-12-20T12:59:44;7.40;99.90
59301;DHT22;45073;52.740;6.784;2023-12-20T13:02:12;7.40;99.90
59301;DHT22;45073;52.740;6.784;2023-12-20T13:04:39;7.40;99.90
59301;DHT22;45073;52.740;6.784;2023-12-20T13:07:05;7.40;99.90
59301;DHT22;45073;52.740;6.784;2023-12-20T13:09:31;7.30;99.90
59301;DHT22;45073;52.740;6.784;2023-12-20T13:11:57;7.30;99.90
59301;DHT22;45073;52.740;6.784;2023-12-20T13:14:22;7.20;99.90
59301;DHT22;45073;52.740;6.784;2023-12-20T13:16:48;7.20;99.90
59301;DHT22;45073;52.740;6.784;2023-12-20T13:19:13;7.10;99.90
59301;DHT22;45073;52.740;6.784;2023-12-20T13:21:40;7.00;99.90
59301;DHT22;45073;52.740;6.784;2023-12-20T13:24:06;7.00;99.90
59301;DHT22;45073;52.740;6.784;2023-12-20T13:26:32;6.90;99.90
59301;DHT22;45073;52.740;6.784;2023-12-20T13:28:58;6.90;99.90
59301;DHT22;45073;52.740;6.784;2023-12-20T13:31:23;6.90;99.90
59301;DHT22;45073;52.740;6.784;2023-12-20T13:33:49;6.80;99.90
59301;DHT22;45073;52.740;6.784;2023-12-20T13:36:15;6.80;99.90
59301;DHT22;45073;52.740;6.784;2023-12-20T13:38:40;6.80;99.90
59301;DHT22;45073;52.740;6.784;2023-12-20T13:41:06;6.70;99.90
59301;DHT22;45073;52.740;6.784;2023-12-20T13:43:32;6.70;99.90
59301;DHT22;45073;52.740;6.784;2023-12-20T13:46:01;6.70;99.90
59301;DHT22;45073;52.740;6.784;2023-12-20T13:48:26;6.70;99.90
59301;DHT22;45073;52.740;6.784;2023-12-20T13:50:52;6.70;99.90
59301;DHT22;45073;52.740;6.784;2023-12-20T13:53:18;6.70;99.90
59301;DHT22;45073;52.740;6.784;2023-12-20T13:55:44;6.60;99.90
59301;DHT22;45073;52.740;6.784;2023-12-20T13:58:10;6.60;99.90
59301;DHT22;45073;52.740;6.784;2023-12-20T14:00:36;6.60;99.90
59301;DHT22;45073;52.740;6.784;2023-12-20T14:03:03;6.60;99.90
59301;DHT22;45073;52.740;6.784;2023-12-20T14:05:29;6.60;99.90
59301;DHT22;45073;52.740;6.784;2023-12-20T14:07:55;6.50;99.90
59301;DHT22;45073;52.740;6.784;2023-12-20T14:10:23;6.50;99.90
59301;DHT22;45073;52.740;6.784;2023-12-20T14:12:48;6.60;99.90
59301;DHT22;45073;52.740;6.784;2023-12-20T14:15:14;6.50;99.90
59301;DHT22;45073;52.740;6.784;2023-12-20T14:17:40;6.60;99.90
59301;DHT22;45073;52.740;6.784;2023-12-20T14:20:09;6.60;99.90
59301;DHT22;45073;52.740;6.784;2023-12-20T14:22:38;6.60;99.90
59301;DHT22;45073;52.740;6.784;2023-12-20T14:25:04;6.50;99.90
59301;DHT22;45073;52.740;6.784;2023-12-20T14:27:31;6.60;99.90
59301;DHT22;45073;52.740;6.784;2023-12-20T14:29:57;6.60;99.90
59301;DHT22;45073;52.740;6.784;2023-12-20T14:32:23;6.60;99.90
59301;DHT22;45073;52.740;6.784;2023-12-20T14:34:49;6.60;99.90
59301;DHT22;45073;52.740;6.784;2023-12-20T14:37:14;6.60;99.90
59301;DHT22;45073;52.740;6.784;2023-12-20T14:39:41;6.60;99.90
59301;DHT22;45073;52.740;6.784;2023-12-20T14:42:10;6.60;99.90
59301;DHT22;45073;52.740;6.784;2023-12-20T14:44:42;6.60;99.90
59301;DHT22;45073;52.740;6.784;2023-12-20T14:47:08;6.60;99.90
59301;DHT22;45073;52.740;6.784;2023-12-20T14:49:34;6.60;99.90
59301;DHT22;45073;52.740;6.784;2023-12-20T14:51:59;6.60;99.90
59301;DHT22;45073;52.740;6.784;2023-12-20T14:54:25;6.60;99.90
59301;DHT22;45073;52.740;6.784;2023-12-20T14:56:51;6.60;99.90
59301;DHT22;45073;52.740;6.784;2023-12-20T14:59:16;6.70;99.90
59301;DHT22;45073;52.740;6.784;2023-12-20T15:01:43;6.60;99.90
59301;DHT22;45073;52.740;6.784;2023-12-20T15:04:09;6.60;99.90
59301;DHT22;45073;52.740;6.784;2023-12-20T15:06:35;6.70;99.90
59301;DHT22;45073;52.740;6.784;2023-12-20T15:09:01;6.70;99.90
59301;DHT22;45073;52.740;6.784;2023-12-20T15:11:30;6.70;99.90
59301;DHT22;45073;52.740;6.784;2023-12-20T15:13:56;6.70;99.90
59301;DHT22;45073;52.740;6.784;2023-12-20T15:16:22;6.70;99.90
59301;DHT22;45073;52.740;6.784;2023-12-20T15:18:48;6.80;99.90
59301;DHT22;45073;52.740;6.784;2023-12-20T15:21:15;6.90;99.90
59301;DHT22;45073;52.740;6.784;2023-12-20T15:23:40;6.90;99.90
59301;DHT22;45073;52.740;6.784;2023-12-20T15:26:16;7.00;99.90
59301;DHT22;45073;52.740;6.784;2023-12-20T15:28:42;7.00;99.90
59301;DHT22;45073;52.740;6.784;2023-12-20T15:31:08;7.10;99.90
59301;DHT22;45073;52.740;6.784;2023-12-20T15:33:33;7.10;99.90
59301;DHT22;45073;52.740;6.784;2023-12-20T15:35:59;7.20;99.90
59301;DHT22;45073;52.740;6.784;2023-12-20T15:38:24;7.30;99.90
59301;DHT22;45073;52.740;6.784;2023-12-20T15:40:50;7.30;99.90